Main page
METAR-TAF:

METAR-TAF

Airports :

Augsburg Airport

Augsburg, Germany

latitude: 48-26N, longitude: 010-56E, elevation: 461 m

Current weather observation

The report was made 38 minutes ago, at 07:20 UTC
Calm wind
Temperature -9°C
Humidity 92%
Pressure 1013 hPa
Visibility: 5000 m
mist

METAR: EDMA 200720Z 00000KT 5000 BR NSC M09/M10 Q1013

Time: 08:58 (07:58 UTC)

Forecast

The report was made 2 hours and 28 minutes ago, at 05:30 UTC
Forecast valid from 20 at 06 UTC to 20 at 15 UTC
Wind 3 kt from variable directions
Visibility: 6000 m
Scattered clouds at a height of 400 ft
Temporary
from 20 at 06 UTC to 20 at 10 UTC
Visibility: 4000 m
Overcast at a height of 400 ft
mist

TAF: EDMA 200530Z 2006/2015 VRB03KT 6000 SCT004 TEMPO 2006/2010 4000 BR OVC004

Weather observations and forecasts of more than 4000 airports (METAR and TAF reports).

The available stations are represented by yellow and red dots on the map.

Hover mouse over dot to see the name of the station.

Then click to see weather observations and forecasts.

To change the map : click on the green buttons with a black cross to zoom in, on the green button with a dash to zoom out, or on the green arrows for adjacent maps.


METAR-TAF: